createdAt,value
2023-04-16T00:00:24.125Z,100279.33
2023-04-16T00:01:24.146Z,100275.58
2023-04-16T00:02:24.398Z,100277.41
2023-04-16T00:03:24.577Z,100273.36
2023-04-16T00:04:24.708Z,100275.06
2023-04-16T00:05:24.644Z,100274.11
2023-04-16T00:06:24.654Z,100272.88
2023-04-16T00:07:24.696Z,100270.7
2023-04-16T00:08:24.811Z,100275.2
2023-04-16T00:09:24.702Z,100273.39
2023-04-16T00:10:24.752Z,100272.34
2023-04-16T00:11:24.747Z,100272.66
2023-04-16T00:12:24.787Z,100273.36
2023-04-16T00:13:24.845Z,100276.77
2023-04-16T00:14:24.967Z,100276.91
2023-04-16T00:15:24.828Z,100277.34
2023-04-16T00:16:24.885Z,100273.3
2023-04-16T00:17:25.293Z,100271.33
2023-04-16T00:18:24.978Z,100270.94
2023-04-16T00:19:24.870Z,100271
2023-04-16T00:20:25.104Z,100272.05
2023-04-16T00:21:24.907Z,100266.2
2023-04-16T00:22:24.952Z,100269.8
2023-04-16T00:23:25.000Z,100270.73
2023-04-16T00:24:25.025Z,100269.95
2023-04-16T00:25:24.984Z,100268.94
2023-04-16T00:26:25.029Z,100268.89
2023-04-16T00:27:25.033Z,100268.69
2023-04-16T00:28:25.274Z,100266.18
2023-04-16T00:29:25.091Z,100268.59
2023-04-16T00:30:25.061Z,100267.68
2023-04-16T00:31:31.953Z,100270.67
2023-04-16T00:32:28.222Z,100267.09
2023-04-16T00:33:28.273Z,100269.42
2023-04-16T00:34:28.200Z,100270.38
2023-04-16T00:35:28.249Z,100270.34
2023-04-16T00:36:28.465Z,100270.64
2023-04-16T00:37:28.226Z,100267.77
2023-04-16T00:38:28.264Z,100268.32
2023-04-16T00:39:28.386Z,100268.09
2023-04-16T00:40:28.560Z,100266.52
2023-04-16T00:41:28.288Z,100269.61
2023-04-16T00:42:28.349Z,100270.03
2023-04-16T00:43:28.373Z,100269.02
2023-04-16T00:44:28.382Z,100273.26
2023-04-16T00:45:28.384Z,100269
2023-04-16T00:46:28.691Z,100269.87
2023-04-16T00:47:28.773Z,100271.67
2023-04-16T00:48:28.530Z,100272.11
2023-04-16T00:49:29.307Z,100270.81
2023-04-16T00:50:29.164Z,100268.47
2023-04-16T00:51:28.528Z,100271.25
2023-04-16T00:52:29.097Z,100268.91
2023-04-16T00:53:28.868Z,100270.2
2023-04-16T00:54:29.312Z,100270.84
2023-04-16T00:55:28.903Z,100270.08
2023-04-16T00:56:28.812Z,100268.81
2023-04-16T00:57:28.592Z,100265.39
2023-04-16T00:58:29.316Z,100268.02
2023-04-16T00:59:28.981Z,100267.73
2023-04-16T01:00:28.767Z,100266.43
2023-04-16T01:01:28.680Z,100267.68
2023-04-16T01:02:28.817Z,100269.05
2023-04-16T01:04:29.348Z,100267.8
2023-04-16T01:05:29.788Z,100266.45
2023-04-16T01:06:28.736Z,100266.86
2023-04-16T01:07:28.858Z,100264.04
2023-04-16T01:08:28.730Z,100267.16
2023-04-16T01:09:28.758Z,100264.31
2023-04-16T01:10:28.798Z,100263.73
2023-04-16T01:11:28.833Z,100261.41
2023-04-16T01:12:28.930Z,100263.05
2023-04-16T01:13:28.956Z,100260.53
2023-04-16T01:14:28.954Z,100258.74
2023-04-16T01:15:29.374Z,100258.95
2023-04-16T01:16:28.928Z,100261.06
2023-04-16T01:17:28.957Z,100255.64
2023-04-16T01:18:28.903Z,100255.8
2023-04-16T01:19:29.477Z,100251.94
2023-04-16T01:20:29.615Z,100252.51
2023-04-16T01:21:28.962Z,100255.49
2023-04-16T01:22:28.999Z,100251.13
2023-04-16T01:23:28.999Z,100249.88
2023-04-16T01:24:28.976Z,100248.71
2023-04-16T01:25:29.044Z,100247.21
2023-04-16T01:26:29.037Z,100247.44
2023-04-16T01:27:29.073Z,100248.08
2023-04-16T01:28:29.049Z,100246.38
2023-04-16T01:29:29.084Z,100246.66
2023-04-16T01:30:29.326Z,100246.25
2023-04-16T01:31:29.141Z,100247.93
2023-04-16T01:32:31.454Z,100244.56
2023-04-16T01:33:29.145Z,100243.97
2023-04-16T01:34:29.169Z,100250.25
2023-04-16T01:35:29.181Z,100243.39
2023-04-16T01:36:29.195Z,100246.59
2023-04-16T01:37:29.361Z,100242.22
2023-04-16T01:38:29.237Z,100240.91
2023-04-16T01:39:29.299Z,100242.89
2023-04-16T01:40:29.293Z,100245.75
2023-04-16T01:41:29.329Z,100240.22
2023-04-16T01:42:29.322Z,100239.23
2023-04-16T01:43:29.356Z,100244.46
2023-04-16T01:44:29.376Z,100241.66
2023-04-16T01:45:31.101Z,100237.92
2023-04-16T01:46:31.446Z,100239.32
2023-04-16T01:47:29.453Z,100243.33
2023-04-16T01:48:29.463Z,100241.25
2023-04-16T01:49:29.475Z,100241.23
2023-04-16T01:50:29.856Z,100238.91
2023-04-16T01:51:29.498Z,100241.12
2023-04-16T01:52:29.579Z,100239.36
2023-04-16T01:53:29.515Z,100239.8
2023-04-16T01:54:29.583Z,100234.48
2023-04-16T01:55:29.555Z,100238.45
2023-04-16T01:56:29.546Z,100234.55
2023-04-16T01:57:29.589Z,100234.48
2023-04-16T01:58:30.022Z,100239.71
2023-04-16T01:59:29.671Z,100236.61
2023-04-16T02:00:29.656Z,100235.97
2023-04-16T02:01:29.791Z,100233.63
2023-04-16T02:02:30.125Z,100236.59
2023-04-16T02:03:30.749Z,100239.13
2023-04-16T02:04:29.791Z,100236.88
2023-04-16T02:05:29.722Z,100229.14
2023-04-16T02:06:29.734Z,100234.63
2023-04-16T02:07:29.796Z,100235.03
2023-04-16T02:08:29.747Z,100234.27
2023-04-16T02:09:29.823Z,100234.43
2023-04-16T02:10:29.797Z,100230.56
2023-04-16T02:11:29.812Z,100235.05
2023-04-16T02:12:29.851Z,100229.7
2023-04-16T02:13:29.815Z,100228.98
2023-04-16T02:14:30.146Z,100224.88
2023-04-16T02:15:29.868Z,100227.86
2023-04-16T02:16:29.899Z,100226.05
2023-04-16T02:17:29.943Z,100229.78
2023-04-16T02:18:30.413Z,100226.7
2023-04-16T02:19:30.459Z,100226.87
2023-04-16T02:20:30.573Z,100217.95
2023-04-16T02:21:30.447Z,100221.28
2023-04-16T02:22:30.510Z,100221.2
2023-04-16T02:23:30.486Z,100225.98
2023-04-16T02:24:30.578Z,100218.36
2023-04-16T02:25:30.533Z,100220.12
2023-04-16T02:26:30.541Z,100221.79
2023-04-16T02:27:30.571Z,100223.74
2023-04-16T02:28:30.589Z,100223.45
2023-04-16T02:29:30.634Z,100224.89
2023-04-16T02:30:30.595Z,100224.3
2023-04-16T02:31:30.746Z,100222.67
2023-04-16T02:32:30.650Z,100220.76
2023-04-16T02:33:30.651Z,100222.62
2023-04-16T02:34:30.686Z,100223.35
2023-04-16T02:36:32.928Z,100220.52
2023-04-16T02:37:32.934Z,100224.11
2023-04-16T02:38:32.957Z,100220.66
2023-04-16T02:39:33.024Z,100223.89
2023-04-16T02:40:33.044Z,100224.54
2023-04-16T02:41:33.023Z,100224.25
2023-04-16T02:42:33.022Z,100226.91
2023-04-16T02:43:33.026Z,100223.95
2023-04-16T02:44:33.081Z,100224.46
2023-04-16T02:45:33.091Z,100226.31
2023-04-16T02:46:33.084Z,100223.11
2023-04-16T02:47:33.115Z,100222.31
2023-04-16T02:48:33.167Z,100221.02
2023-04-16T02:49:33.193Z,100223
2023-04-16T02:50:33.106Z,100223
2023-04-16T02:51:33.126Z,100220.23
2023-04-16T02:52:33.125Z,100222.28
2023-04-16T02:53:33.160Z,100221.44
2023-04-16T02:54:33.228Z,100220.12
2023-04-16T02:55:33.200Z,100224.34
2023-04-16T02:56:33.213Z,100218.38
2023-04-16T02:57:33.407Z,100217.84
2023-04-16T02:58:33.205Z,100216.31
2023-04-16T02:59:33.288Z,100220.21
2023-04-16T03:00:33.317Z,100216.7
2023-04-16T03:01:33.335Z,100215.66
2023-04-16T03:02:33.414Z,100214.53
2023-04-16T03:03:33.317Z,100214.2
2023-04-16T03:04:33.372Z,100222.61
2023-04-16T03:05:33.430Z,100217.83
2023-04-16T03:06:33.377Z,100214.7
2023-04-16T03:07:33.388Z,100214.2
2023-04-16T03:08:33.383Z,100213.83
2023-04-16T03:09:33.397Z,100216.8
2023-04-16T03:10:33.442Z,100219.33
2023-04-16T03:11:33.482Z,100214.91
2023-04-16T03:12:33.463Z,100220.08
2023-04-16T03:13:33.472Z,100219.77
2023-04-16T03:14:33.485Z,100218.4
2023-04-16T03:15:33.549Z,100218
2023-04-16T03:16:33.565Z,100224.46
2023-04-16T03:17:33.507Z,100221.34
2023-04-16T03:18:33.754Z,100228.2
2023-04-16T03:19:33.588Z,100227.95
2023-04-16T03:20:33.656Z,100227.07
2023-04-16T03:21:33.601Z,100228.25
2023-04-16T03:22:33.666Z,100231.88
2023-04-16T03:23:33.641Z,100228.09
2023-04-16T03:24:33.692Z,100228.06
2023-04-16T03:25:33.696Z,100231.7
2023-04-16T03:26:33.663Z,100227.62
2023-04-16T03:27:33.884Z,100224.23
2023-04-16T03:28:33.685Z,100228.23
2023-04-16T03:29:36.077Z,100231.61
2023-04-16T03:30:33.741Z,100228.98
2023-04-16T03:31:33.735Z,100233.63
2023-04-16T03:32:33.741Z,100225.06
2023-04-16T03:33:33.739Z,100228.73
2023-04-16T03:34:33.772Z,100230.41
2023-04-16T03:35:33.768Z,100227.53
2023-04-16T03:36:33.775Z,100226.74
2023-04-16T03:37:34.083Z,100228.97
2023-04-16T03:38:33.831Z,100227.62
2023-04-16T03:39:33.817Z,100227.34
2023-04-16T03:40:33.857Z,100227.67
2023-04-16T03:41:33.865Z,100225.84
2023-04-16T03:42:33.864Z,100228.39
2023-04-16T03:43:33.915Z,100224.67
2023-04-16T03:44:33.926Z,100224.88
2023-04-16T03:45:33.897Z,100226.27
2023-04-16T03:46:33.981Z,100225.86
2023-04-16T03:47:34.540Z,100227.62
2023-04-16T03:48:34.549Z,100227.36
2023-04-16T03:49:34.545Z,100229.2
2023-04-16T03:50:34.556Z,100228.47
2023-04-16T03:51:34.542Z,100231.24
2023-04-16T03:52:34.622Z,100229.17
2023-04-16T03:53:34.601Z,100228.98
2023-04-16T03:54:34.608Z,100229.38
2023-04-16T03:55:35.057Z,100226.48
2023-04-16T03:56:34.675Z,100228.41
2023-04-16T03:57:34.616Z,100227.86
2023-04-16T03:58:34.721Z,100220.91
2023-04-16T03:59:34.676Z,100223.17
2023-04-16T04:00:34.706Z,100225.2
2023-04-16T04:01:34.724Z,100228.18
2023-04-16T04:02:34.869Z,100229.38
2023-04-16T04:03:34.963Z,100229.97
2023-04-16T04:04:34.898Z,100232.97
2023-04-16T04:05:39.030Z,100232.44
2023-04-16T04:06:35.420Z,100230.52
2023-04-16T04:07:35.279Z,100233.31
2023-04-16T04:08:35.514Z,100231.24
2023-04-16T04:09:35.311Z,100231.11
2023-04-16T04:10:35.581Z,100231.56
2023-04-16T04:11:35.326Z,100230.83
2023-04-16T04:12:35.339Z,100232.86
2023-04-16T04:13:35.416Z,100230.66
2023-04-16T04:14:35.379Z,100229.61
2023-04-16T04:15:35.411Z,100232.59
2023-04-16T04:16:35.428Z,100230.81
2023-04-16T04:17:35.405Z,100227.88
2023-04-16T04:18:35.460Z,100228.29
2023-04-16T04:19:35.433Z,100226.83
2023-04-16T04:20:38.925Z,100231.27
2023-04-16T04:21:35.457Z,100228.16
2023-04-16T04:22:35.482Z,100230.88
2023-04-16T04:23:35.899Z,100227.66
2023-04-16T04:24:35.495Z,100232.22
2023-04-16T04:25:35.626Z,100234
2023-04-16T04:26:35.546Z,100233.3
2023-04-16T04:27:35.536Z,100227.48
2023-04-16T04:28:35.694Z,100227.93
2023-04-16T04:29:35.652Z,100229.41
2023-04-16T04:30:35.572Z,100226.94
2023-04-16T04:31:35.656Z,100228.28
2023-04-16T04:32:35.629Z,100227.95
2023-04-16T04:33:35.620Z,100227.64
2023-04-16T04:34:35.616Z,100227.28
2023-04-16T04:35:35.621Z,100226.19
2023-04-16T04:36:35.685Z,100227.7
2023-04-16T04:37:35.705Z,100223.7
2023-04-16T04:38:35.675Z,100227.34
2023-04-16T04:39:35.686Z,100225.2
2023-04-16T04:40:35.699Z,100224.46
2023-04-16T04:41:35.724Z,100227.59
2023-04-16T04:42:36.452Z,100230.36
2023-04-16T04:43:35.741Z,100230.99
2023-04-16T04:44:35.789Z,100229.4
2023-04-16T04:45:35.792Z,100230.8
2023-04-16T04:46:35.816Z,100231.5
2023-04-16T04:47:35.858Z,100229.93
2023-04-16T04:48:35.803Z,100227.38
2023-04-16T04:49:35.957Z,100228.88
2023-04-16T04:50:36.234Z,100227.59
2023-04-16T04:51:35.812Z,100224.16
2023-04-16T04:52:35.856Z,100223.02
2023-04-16T04:53:35.875Z,100219.6
2023-04-16T04:54:35.920Z,100221.25
2023-04-16T04:55:36.662Z,100221.55
2023-04-16T04:56:35.893Z,100222.34
2023-04-16T04:57:35.905Z,100219.98
2023-04-16T04:58:35.948Z,100221.19
2023-04-16T04:59:36.028Z,100223.24
2023-04-16T05:00:36.230Z,100219.25
2023-04-16T05:01:36.098Z,100217.41
2023-04-16T05:02:36.269Z,100222
2023-04-16T05:03:36.104Z,100217.56
2023-04-16T05:04:36.061Z,100217.53
2023-04-16T05:05:36.041Z,100219.06
2023-04-16T05:06:36.130Z,100219.92
2023-04-16T05:07:36.076Z,100224.73
2023-04-16T05:08:36.060Z,100222.39
2023-04-16T05:09:36.168Z,100218.88
2023-04-16T05:10:36.114Z,100220.82
2023-04-16T05:11:36.095Z,100217.8
2023-04-16T05:12:36.149Z,100219.61
2023-04-16T05:13:36.162Z,100219.61
2023-04-16T05:14:36.193Z,100219.11
2023-04-16T05:15:36.228Z,100221.09
2023-04-16T05:16:36.652Z,100219.62
2023-04-16T05:17:36.215Z,100220.22
2023-04-16T05:18:36.205Z,100213.95
2023-04-16T05:19:36.480Z,100217.84
2023-04-16T05:20:36.332Z,100216.21
2023-04-16T05:21:36.265Z,100219.6
2023-04-16T05:22:36.317Z,100219.19
2023-04-16T05:23:36.281Z,100217.09
2023-04-16T05:24:36.408Z,100220.23
2023-04-16T05:25:36.486Z,100220.7
2023-04-16T05:26:36.350Z,100219.75
2023-04-16T05:27:36.764Z,100215.14
2023-04-16T05:28:36.339Z,100218.54
2023-04-16T05:29:36.401Z,100217.67
2023-04-16T05:30:36.411Z,100220.7
2023-04-16T05:31:36.464Z,100218.34
2023-04-16T05:32:36.436Z,100217.05
2023-04-16T05:33:36.464Z,100221.27
2023-04-16T05:34:36.460Z,100218.88
2023-04-16T05:35:36.458Z,100218.28
2023-04-16T05:36:36.493Z,100221.19
2023-04-16T05:37:36.484Z,100219.5
2023-04-16T05:38:36.484Z,100216.79
2023-04-16T05:39:36.557Z,100223.23
2023-04-16T05:40:36.506Z,100221.02
2023-04-16T05:41:36.567Z,100219.48
2023-04-16T05:42:36.560Z,100222.97
2023-04-16T05:43:36.530Z,100222.43
2023-04-16T05:44:36.600Z,100220.77
2023-04-16T05:45:36.597Z,100219.99
2023-04-16T05:46:36.604Z,100217.19
2023-04-16T05:47:36.650Z,100216.64
2023-04-16T05:48:36.623Z,100220.14
2023-04-16T05:49:36.730Z,100216.64
2023-04-16T05:50:39.213Z,100220.05
2023-04-16T05:51:36.703Z,100216.59
2023-04-16T05:52:36.668Z,100218.02
2023-04-16T05:53:36.686Z,100216.42
2023-04-16T05:54:36.720Z,100221.45
2023-04-16T05:55:36.751Z,100221.54
2023-04-16T05:56:36.749Z,100220.38
2023-04-16T05:57:36.736Z,100220.52
2023-04-16T05:58:36.781Z,100219.44
2023-04-16T05:59:36.753Z,100215.95
2023-04-16T06:00:36.799Z,100217.03
2023-04-16T06:01:36.839Z,100220.95
2023-04-16T06:02:36.887Z,100217.41
2023-04-16T06:03:36.930Z,100216.98
2023-04-16T06:04:36.849Z,100215.81
2023-04-16T06:05:36.894Z,100212.29
2023-04-16T06:06:37.053Z,100219.78
2023-04-16T06:07:36.874Z,100215.04
2023-04-16T06:08:36.860Z,100217.03
2023-04-16T06:09:36.916Z,100216.28
2023-04-16T06:10:36.961Z,100214.23
2023-04-16T06:11:36.962Z,100210.84
2023-04-16T06:12:36.981Z,100213.04
2023-04-16T06:13:37.095Z,100211.05
2023-04-16T06:14:36.978Z,100210.23
2023-04-16T06:15:36.994Z,100214.36
2023-04-16T06:16:37.107Z,100212.94
2023-04-16T06:17:37.023Z,100211.28
2023-04-16T06:18:37.032Z,100211.86
2023-04-16T06:19:37.032Z,100212.55
2023-04-16T06:20:37.166Z,100216.11
2023-04-16T06:21:37.076Z,100211.97
2023-04-16T06:22:37.197Z,100211.42
2023-04-16T06:23:37.093Z,100215.25
2023-04-16T06:24:37.114Z,100213.83
2023-04-16T06:25:37.115Z,100205.19
2023-04-16T06:26:37.135Z,100207.44
2023-04-16T06:27:37.242Z,100209.53
2023-04-16T06:28:37.150Z,100204.73
2023-04-16T06:29:41.515Z,100208.38
2023-04-16T06:30:38.966Z,100209.7
2023-04-16T06:31:38.013Z,100206.68
2023-04-16T06:32:38.363Z,100204.89
2023-04-16T06:33:38.061Z,100207.77
2023-04-16T06:34:38.494Z,100208.42
2023-04-16T06:35:38.066Z,100209.89
2023-04-16T06:36:38.075Z,100203.3
2023-04-16T06:37:38.305Z,100199.36
2023-04-16T06:38:38.128Z,100204.98
2023-04-16T06:39:38.119Z,100202.69
2023-04-16T06:40:38.155Z,100208.44
2023-04-16T06:41:38.313Z,100207.73
2023-04-16T06:42:38.348Z,100208
2023-04-16T06:43:38.238Z,100200.1
2023-04-16T06:44:38.225Z,100204.2
2023-04-16T06:45:38.319Z,100203.06
2023-04-16T06:46:38.254Z,100204.8
2023-04-16T06:47:38.270Z,100204.62
2023-04-16T06:48:38.271Z,100202.83
2023-04-16T06:49:38.248Z,100202.55
2023-04-16T06:50:38.483Z,100205.93
2023-04-16T06:51:38.474Z,100205.42
2023-04-16T06:52:38.285Z,100204.08
2023-04-16T06:53:38.337Z,100204.19
2023-04-16T06:54:39.689Z,100203.39
2023-04-16T06:55:38.549Z,100194.78
2023-04-16T06:56:38.333Z,100202.63
2023-04-16T06:57:38.331Z,100202.34
2023-04-16T06:58:38.414Z,100201.91
2023-04-16T06:59:38.399Z,100202.05
2023-04-16T07:00:38.466Z,100199.3
2023-04-16T07:01:38.422Z,100198.05
2023-04-16T07:02:38.598Z,100204
2023-04-16T07:03:38.850Z,100199.84
2023-04-16T07:04:38.480Z,100203.26
2023-04-16T07:05:38.454Z,100202.64
2023-04-16T07:06:38.486Z,100205.55
2023-04-16T07:07:38.494Z,100204.25
2023-04-16T07:08:38.539Z,100204.48
2023-04-16T07:09:38.546Z,100199.64
2023-04-16T07:10:38.712Z,100204.62
2023-04-16T07:11:38.600Z,100199.9
2023-04-16T07:12:38.628Z,100203.19
2023-04-16T07:13:38.589Z,100204.54
2023-04-16T07:14:38.744Z,100204.98
2023-04-16T07:15:38.613Z,100208.91
2023-04-16T07:16:38.657Z,100205.3
2023-04-16T07:17:38.679Z,100206.3
2023-04-16T07:18:38.871Z,100204.25
2023-04-16T07:19:38.663Z,100206.05
2023-04-16T07:20:38.937Z,100205.89
2023-04-16T07:21:38.978Z,100202.16
2023-04-16T07:22:38.714Z,100202
2023-04-16T07:23:38.717Z,100203.16
2023-04-16T07:24:38.771Z,100201.05
2023-04-16T07:25:38.759Z,100202.52
2023-04-16T07:26:38.793Z,100208.87
2023-04-16T07:27:38.758Z,100198.58
2023-04-16T07:28:38.812Z,100203.28
2023-04-16T07:29:38.936Z,100202.1
2023-04-16T07:30:38.831Z,100209.57
2023-04-16T07:31:38.911Z,100204.2
2023-04-16T07:32:38.919Z,100202.38
2023-04-16T07:33:38.889Z,100202.23
2023-04-16T07:34:38.932Z,100203.88
2023-04-16T07:35:38.905Z,100203.73
2023-04-16T07:36:38.952Z,100204.2
2023-04-16T07:37:38.928Z,100203.23
2023-04-16T07:38:38.959Z,100204.7
2023-04-16T07:39:38.987Z,100208.11
2023-04-16T07:40:39.009Z,100209.7
2023-04-16T07:41:39.469Z,100209.7
2023-04-16T07:42:39.077Z,100208.91
2023-04-16T07:43:39.007Z,100213.91
2023-04-16T07:44:39.186Z,100209.31
2023-04-16T07:45:40.502Z,100212.08
2023-04-16T07:46:46.103Z,100213.88
2023-04-16T07:47:43.850Z,100213.55
2023-04-16T07:48:43.791Z,100212.74
2023-04-16T07:49:43.832Z,100217.27
2023-04-16T07:50:43.832Z,100213.84
2023-04-16T07:51:43.880Z,100215.67
2023-04-16T07:52:43.855Z,100214.14
2023-04-16T07:53:44.148Z,100222.74
2023-04-16T07:54:43.942Z,100216.36
2023-04-16T07:55:43.933Z,100218.55
2023-04-16T07:56:43.944Z,100216.59
2023-04-16T07:57:43.938Z,100211.06
2023-04-16T07:58:43.971Z,100216.69
2023-04-16T07:59:43.997Z,100217.54
2023-04-16T08:00:43.964Z,100222.92
2023-04-16T08:01:44.014Z,100221.69
2023-04-16T08:02:44.469Z,100219.91
2023-04-16T08:03:44.349Z,100221.91
2023-04-16T08:04:44.201Z,100223
2023-04-16T08:05:44.058Z,100220.23
2023-04-16T08:06:44.078Z,100224
2023-04-16T08:07:44.126Z,100226.5
2023-04-16T08:08:44.114Z,100224.03
2023-04-16T08:09:47.838Z,100225.28
2023-04-16T08:10:44.135Z,100221.31
2023-04-16T08:11:44.688Z,100220.52
2023-04-16T08:12:44.695Z,100221.61
2023-04-16T08:13:44.787Z,100224.42
2023-04-16T08:14:45.289Z,100220.88
2023-04-16T08:15:44.748Z,100222.44
2023-04-16T08:16:44.774Z,100212.5
2023-04-16T08:17:45.098Z,100217.66
2023-04-16T08:18:44.793Z,100218.67
2023-04-16T08:19:45.154Z,100217
2023-04-16T08:20:45.038Z,100219.84
2023-04-16T08:21:45.051Z,100214.61
2023-04-16T08:22:45.281Z,100223.28
2023-04-16T08:23:44.980Z,100218.06
2023-04-16T08:24:44.863Z,100217.41
2023-04-16T08:25:45.007Z,100215.7
2023-04-16T08:26:44.895Z,100213.2
2023-04-16T08:27:44.914Z,100215.89
2023-04-16T08:28:44.944Z,100214.67
2023-04-16T08:29:44.977Z,100219.94
2023-04-16T08:30:45.177Z,100217.7
2023-04-16T08:31:45.016Z,100213.41
2023-04-16T08:32:45.991Z,100220.17
2023-04-16T08:33:45.016Z,100216.05
2023-04-16T08:34:45.119Z,100221.35
2023-04-16T08:35:45.058Z,100217.73
2023-04-16T08:36:45.103Z,100221.05
2023-04-16T08:37:45.117Z,100217.22
2023-04-16T08:38:45.131Z,100216.91
2023-04-16T08:39:45.147Z,100222.36
2023-04-16T08:40:45.593Z,100217.19
2023-04-16T08:41:45.899Z,100218.31
2023-04-16T08:43:48.376Z,100218.34
2023-04-16T08:44:49.261Z,100220.03
2023-04-16T08:45:47.254Z,100221.95
2023-04-16T08:46:46.434Z,100220.55
2023-04-16T08:47:53.048Z,100221.75
2023-04-16T08:48:53.299Z,100221.89
2023-04-16T08:49:49.950Z,100220.4
2023-04-16T08:50:52.297Z,100220.86
2023-04-16T08:51:50.189Z,100217.91
2023-04-16T08:52:53.545Z,100217.34
2023-04-16T08:53:53.315Z,100220.33
2023-04-16T08:54:57.249Z,100220.62
2023-04-16T08:55:54.592Z,100222.75
2023-04-16T08:56:54.206Z,100221.35
2023-04-16T08:58:00.246Z,100222.58
2023-04-16T08:58:57.148Z,100221.41
2023-04-16T08:59:57.606Z,100220.62
2023-04-16T09:00:56.668Z,100223.64
2023-04-16T09:01:57.941Z,100219.7
2023-04-16T09:02:56.663Z,100220.33
2023-04-16T09:03:56.940Z,100220.53
2023-04-16T09:04:59.709Z,100218.11
2023-04-16T09:05:57.809Z,100219.24
2023-04-16T09:06:58.020Z,100218.74
2023-04-16T09:07:56.601Z,100219.11
2023-04-16T09:08:57.345Z,100226.39
2023-04-16T09:09:57.836Z,100222.45
2023-04-16T09:10:56.689Z,100220.13
2023-04-16T09:11:56.788Z,100222.81
2023-04-16T09:12:57.096Z,100219.39
2023-04-16T09:13:57.127Z,100227.74
2023-04-16T09:14:56.961Z,100228.7
2023-04-16T09:15:56.891Z,100222.95
2023-04-16T09:16:57.402Z,100224.17
2023-04-16T09:17:56.864Z,100223.47
2023-04-16T09:18:56.801Z,100223.89
2023-04-16T09:19:56.901Z,100224.94
2023-04-16T09:20:57.071Z,100228.77
2023-04-16T09:21:56.886Z,100224.42
2023-04-16T09:22:56.916Z,100226.73
2023-04-16T09:23:57.011Z,100226.67
2023-04-16T09:24:56.914Z,100224.17
2023-04-16T09:25:58.480Z,100226.66
2023-04-16T09:26:57.147Z,100227.47
2023-04-16T09:27:56.976Z,100225.45
2023-04-16T09:28:56.947Z,100223.12
2023-04-16T09:29:57.041Z,100222.12
2023-04-16T09:34:05.761Z,100224.2
2023-04-16T09:35:02.025Z,100224.41
2023-04-16T09:36:02.021Z,100221.38
2023-04-16T09:38:05.719Z,100225.78
2023-04-16T09:39:05.692Z,100228.91
2023-04-16T09:40:06.156Z,100223.8
2023-04-16T09:41:06.710Z,100229.07
2023-04-16T09:42:05.872Z,100224.5
2023-04-16T09:44:07.288Z,100229.77
2023-04-16T09:45:07.576Z,100232.84
2023-04-16T09:46:10.906Z,100233.3
2023-04-16T09:47:08.322Z,100229.25
2023-04-16T09:48:07.333Z,100227.2
2023-04-16T09:49:16.799Z,100231.67
2023-04-16T09:50:10.580Z,100222.17
2023-04-16T09:51:08.677Z,100220.59
2023-04-16T09:52:15.514Z,100222.88
2023-04-16T09:53:11.721Z,100224.38
2023-04-16T09:54:11.988Z,100222.86
2023-04-16T09:55:11.976Z,100224.05
2023-04-16T09:56:11.904Z,100222.64
2023-04-16T09:57:11.848Z,100227.7
2023-04-16T09:58:12.325Z,100222.66
2023-04-16T09:59:21.297Z,100219.64
2023-04-16T10:00:13.158Z,100219.62
2023-04-16T10:01:12.991Z,100218.56
2023-04-16T10:02:15.514Z,100220.16
2023-04-16T10:03:12.665Z,100216.3
2023-04-16T10:04:12.675Z,100215.09
2023-04-16T10:05:14.433Z,100221.27
2023-04-16T10:06:16.358Z,100227.3
2023-04-16T10:07:12.795Z,100215.68
2023-04-16T10:08:13.242Z,100218.84
2023-04-16T10:09:12.911Z,100217.42
2023-04-16T10:10:12.799Z,100213.98
2023-04-16T10:11:12.760Z,100206.2
2023-04-16T10:12:12.711Z,100213.89
2023-04-16T10:13:12.898Z,100209.95
2023-04-16T10:14:12.720Z,100212.94
2023-04-16T10:15:12.783Z,100211.15
2023-04-16T10:16:16.032Z,100212.55
2023-04-16T10:17:13.171Z,100213.66
2023-04-16T10:18:14.199Z,100210.28
2023-04-16T10:19:13.226Z,100204.81
2023-04-16T10:20:14.224Z,100205.27
2023-04-16T10:21:13.100Z,100210.01
2023-04-16T10:22:12.949Z,100208.57
2023-04-16T10:23:12.935Z,100211.77
2023-04-16T10:24:13.303Z,100208.68
2023-04-16T10:25:12.979Z,100213.27
2023-04-16T10:26:13.317Z,100215.69
2023-04-16T10:27:13.019Z,100211.28
2023-04-16T10:28:13.839Z,100207.55
2023-04-16T10:29:13.018Z,100208.06
2023-04-16T10:30:14.979Z,100206.02
2023-04-16T10:31:13.189Z,100209.59
2023-04-16T10:32:13.916Z,100207.16
2023-04-16T10:33:14.465Z,100210.33
2023-04-16T10:34:13.300Z,100210.31
2023-04-16T10:35:19.120Z,100209.71
2023-04-16T10:37:17.368Z,100208.16
2023-04-16T10:39:20.040Z,100206.53
2023-04-16T10:40:25.526Z,100212.52
2023-04-16T10:41:22.332Z,100207.91
2023-04-16T10:42:21.840Z,100209.8
2023-04-16T10:43:21.782Z,100209.52
2023-04-16T10:44:24.607Z,100209.71
2023-04-16T10:45:26.333Z,100209.55
2023-04-16T10:46:26.553Z,100217.33
2023-04-16T10:47:25.372Z,100210.95
2023-04-16T10:48:29.017Z,100215.15
2023-04-16T10:49:24.782Z,100207.95
2023-04-16T10:50:24.418Z,100212.12
2023-04-16T10:51:28.438Z,100208.52
2023-04-16T10:52:24.647Z,100211.63
2023-04-16T10:53:25.554Z,100213.22
2023-04-16T10:54:28.857Z,100213.3
2023-04-16T10:55:25.097Z,100211.05
2023-04-16T10:56:25.936Z,100214.22
2023-04-16T10:57:29.342Z,100213.89
2023-04-16T10:58:32.237Z,100213.48
2023-04-16T10:59:31.934Z,100217.58
2023-04-16T11:00:28.525Z,100215.07
2023-04-16T11:01:35.417Z,100218.84
2023-04-16T11:02:31.841Z,100213.38
2023-04-16T11:03:31.907Z,100215.71
2023-04-16T11:04:35.862Z,100217.17
2023-04-16T11:06:37.156Z,100218.8
2023-04-16T11:07:36.075Z,100221.32
2023-04-16T11:08:44.278Z,100223.19
2023-04-16T11:10:40.337Z,100224.77
2023-04-16T11:11:40.369Z,100218.92
2023-04-16T11:12:41.867Z,100220.37
2023-04-16T11:13:43.595Z,100221.73
2023-04-16T11:14:40.573Z,100217.28
2023-04-16T11:15:40.434Z,100218.69
2023-04-16T11:16:40.455Z,100218.02
2023-04-16T11:17:44.869Z,100222.45
2023-04-16T11:18:43.635Z,100222.31
2023-04-16T11:19:43.373Z,100223.45
2023-04-16T11:20:43.068Z,100225.02
2023-04-16T11:21:44.592Z,100227.12
2023-04-16T11:22:43.163Z,100223.73
2023-04-16T11:23:46.798Z,100227.8
2023-04-16T11:25:44.964Z,100234.97
2023-04-16T11:26:44.545Z,100234.66
2023-04-16T11:27:44.527Z,100236.28
2023-04-16T11:28:44.568Z,100233.12
2023-04-16T11:29:46.991Z,100235.55
2023-04-16T11:30:44.699Z,100234.59
2023-04-16T11:31:54.069Z,100240.89
2023-04-16T11:32:45.502Z,100236.56
2023-04-16T11:33:45.430Z,100234.28
2023-04-16T11:34:45.956Z,100238.44
2023-04-16T11:36:47.885Z,100239.12
2023-04-16T11:37:47.116Z,100243.41
2023-04-16T11:38:47.183Z,100240.86
2023-04-16T11:39:56.041Z,100238.09
2023-04-16T11:40:49.334Z,100236.84
2023-04-16T11:41:48.896Z,100239.96
2023-04-16T11:42:47.264Z,100240.89